Time;durP1;ratioP1;P1;durP2;ratioP2;P2;SDS_P1;SDS_P2;PMS_P1;PMS_P2;Temp;Humidity;BMP_temperature;BMP_pressure;BME280_temperature;BME280_humidity;BME280_pressure;Samples;Min_cycle;Max_cycle;Signal;HPM_P1;HPM_P2
2021/04/11 00:01:42;;;;;;;4.35;1.40;;;12.90;1.00;;;;;;4996409;28;20062;-70
2021/04/11 00:04:10;;;;;;;2.05;1.10;;;12.90;1.00;;;;;;4994084;28;20053;-71
2021/04/11 00:06:37;;;;;;;1.70;1.17;;;12.80;1.00;;;;;;4995409;28;20060;-70
2021/04/11 00:09:06;;;;;;;4.57;1.58;;;12.70;1.00;;;;;;4997771;28;20080;-71
2021/04/11 00:11:33;;;;;;;6.57;1.65;;;12.70;1.00;;;;;;4999014;28;20052;-71
2021/04/11 00:14:00;;;;;;;2.05;1.27;;;12.70;1.00;;;;;;4992582;28;20506;-71
2021/04/11 00:16:27;;;;;;;1.50;1.13;;;12.50;1.00;;;;;;4993167;28;20385;-70
2021/04/11 00:18:55;;;;;;;3.55;1.30;;;12.50;1.00;;;;;;5001074;28;20126;-70
2021/04/11 00:21:22;;;;;;;3.33;1.50;;;12.50;1.00;;;;;;4999245;28;20096;-71
2021/04/11 00:23:49;;;;;;;2.42;1.48;;;12.40;1.00;;;;;;4994239;28;20515;-71
2021/04/11 00:26:16;;;;;;;1.80;1.20;;;12.40;1.00;;;;;;4998939;28;20133;-71
2021/04/11 00:28:43;;;;;;;2.10;1.20;;;12.30;1.00;;;;;;4998593;28;20586;-72
2021/04/11 00:31:11;;;;;;;3.00;1.40;;;12.30;1.00;;;;;;4998918;28;20052;-71
2021/04/11 00:33:43;;;;;;;2.35;1.20;;;12.20;1.00;;;;;;4996409;28;20057;-72
2021/04/11 00:36:13;;;;;;;3.03;1.48;;;12.10;1.00;;;;;;5002248;28;20050;-72
2021/04/11 00:38:41;;;;;;;1.90;1.27;;;12.10;1.00;;;;;;5000169;28;20555;-71
2021/04/11 00:41:14;;;;;;;3.53;1.45;;;12.10;1.00;;;;;;4995352;28;20065;-72
2021/04/11 00:43:42;;;;;;;2.60;1.40;;;12.00;1.00;;;;;;4991219;28;20051;-72
2021/04/11 00:46:20;;;;;;;1.95;1.30;;;12.00;1.00;;;;;;5000706;28;20073;-76
2021/04/11 00:48:48;;;;;;;2.97;1.30;;;11.90;1.00;;;;;;4998985;28;20050;-71
2021/04/11 00:51:17;;;;;;;2.50;1.23;;;11.80;1.00;;;;;;4995521;28;20060;-70
2021/04/11 00:53:45;;;;;;;3.60;1.83;;;11.70;1.00;;;;;;4992849;28;20100;-72
2021/04/11 00:56:13;;;;;;;4.00;1.38;;;11.80;1.00;;;;;;4991011;28;20060;-72
2021/04/11 00:58:40;;;;;;;2.15;1.30;;;11.70;1.00;;;;;;4994875;28;20066;-71
2021/04/11 01:01:08;;;;;;;2.45;1.40;;;11.70;1.00;;;;;;4999183;28;20042;-71
2021/04/11 01:03:38;;;;;;;3.22;1.33;;;11.70;1.00;;;;;;4988528;28;20072;-70
2021/04/11 01:06:07;;;;;;;3.55;1.70;;;11.60;1.00;;;;;;4994175;28;20539;-72
2021/04/11 01:08:35;;;;;;;3.35;1.20;;;11.60;1.00;;;;;;4993900;28;20136;-72
2021/04/11 01:11:06;;;;;;;2.75;1.30;;;11.50;1.00;;;;;;4994626;28;20125;-69
2021/04/11 01:13:36;;;;;;;2.95;1.45;;;11.40;1.00;;;;;;4991241;28;20057;-72
2021/04/11 01:16:03;;;;;;;3.10;1.42;;;11.30;1.00;;;;;;4992735;28;20046;-70
2021/04/11 01:18:31;;;;;;;3.47;1.45;;;11.30;1.00;;;;;;4990737;28;20057;-69
2021/04/11 01:21:03;;;;;;;1.95;1.25;;;11.30;1.00;;;;;;4993925;28;20042;-73
2021/04/11 01:23:40;;;;;;;3.72;1.50;;;11.20;1.00;;;;;;4987802;28;20054;-71
2021/04/11 01:26:08;;;;;;;4.70;1.60;;;11.20;1.00;;;;;;4993155;28;20499;-70
2021/04/11 01:28:39;;;;;;;4.70;1.67;;;11.20;1.00;;;;;;4995154;28;20133;-70
2021/04/11 01:31:07;;;;;;;3.88;1.70;;;11.20;1.00;;;;;;4995288;28;20046;-70
2021/04/11 01:33:37;;;;;;;2.67;1.42;;;11.20;1.00;;;;;;4991987;28;20066;-70
2021/04/11 01:36:08;;;;;;;3.00;1.50;;;11.20;1.00;;;;;;4997236;28;20162;-71
2021/04/11 01:38:37;;;;;;;2.63;1.48;;;11.10;1.00;;;;;;4996546;28;20052;-71
2021/04/11 01:41:10;;;;;;;3.72;1.65;;;11.10;1.00;;;;;;4997969;28;20062;-71
2021/04/11 01:43:39;;;;;;;2.15;1.48;;;11.10;1.00;;;;;;4993141;28;20061;-72
2021/04/11 01:46:07;;;;;;;3.90;1.40;;;11.20;1.00;;;;;;4991793;28;20145;-72
2021/04/11 01:48:35;;;;;;;3.63;1.60;;;11.30;1.00;;;;;;4989732;28;20137;-72
2021/04/11 01:51:03;;;;;;;2.78;1.75;;;11.40;1.00;;;;;;4996805;28;20137;-71
2021/04/11 01:53:30;;;;;;;2.85;1.63;;;11.50;1.00;;;;;;4987393;28;20055;-72
2021/04/11 01:55:59;;;;;;;3.55;1.38;;;11.40;1.00;;;;;;4991637;28;20054;-71
2021/04/11 01:58:27;;;;;;;2.33;1.55;;;11.40;1.00;;;;;;4991812;28;20049;-71
2021/04/11 02:01:06;;;;;;;2.30;1.40;;;11.60;1.00;;;;;;4991752;28;20118;-71
2021/04/11 02:03:33;;;;;;;3.70;1.80;;;11.70;1.00;;;;;;4987652;28;21249;-71
2021/04/11 02:06:04;;;;;;;3.08;1.48;;;11.60;1.00;;;;;;4997812;28;20050;-71
2021/04/11 02:08:33;;;;;;;1.98;1.50;;;11.60;1.00;;;;;;4996835;28;20460;-71
2021/04/11 02:11:04;;;;;;;2.72;1.63;;;11.70;1.00;;;;;;4999892;28;20153;-71
2021/04/11 02:13:37;;;;;;;3.75;1.80;;;11.80;1.00;;;;;;4993287;28;20062;-71
2021/04/11 02:16:05;;;;;;;6.70;1.90;;;11.80;1.00;;;;;;4994855;28;20132;-71
2021/04/11 02:18:35;;;;;;;4.20;1.67;;;11.80;1.00;;;;;;4998314;28;20053;-72
2021/04/11 02:21:04;;;;;;;2.05;1.50;;;11.80;1.00;;;;;;4997347;28;20053;-74
2021/04/11 02:23:34;;;;;;;2.53;1.70;;;11.80;1.00;;;;;;4991882;28;20045;-71
2021/04/11 02:26:01;;;;;;;3.25;1.50;;;11.80;1.00;;;;;;4992919;28;20050;-71
2021/04/11 02:28:32;;;;;;;3.13;1.80;;;11.80;1.00;;;;;;4997408;28;20054;-71
2021/04/11 02:31:16;;;;;;;2.53;1.58;;;11.80;1.00;;;;;;4999275;28;20062;-71
2021/04/11 02:33:57;;;;;;;3.08;1.92;;;11.80;1.00;;;;;;4995905;28;20050;-71
2021/04/11 02:36:26;;;;;;;4.13;1.73;;;11.80;1.00;;;;;;4998261;28;20046;-71
2021/04/11 02:38:56;;;;;;;2.47;1.90;;;11.70;1.00;;;;;;4998358;28;20060;-71
2021/04/11 02:41:26;;;;;;;3.30;1.90;;;11.70;1.00;;;;;;5003770;28;20046;-71
2021/04/11 02:43:55;;;;;;;3.13;1.58;;;11.70;1.00;;;;;;4996544;28;20058;-69
2021/04/11 02:46:23;;;;;;;3.85;1.77;;;11.70;1.00;;;;;;5000245;28;20053;-70
2021/04/11 02:48:53;;;;;;;3.88;1.70;;;11.70;1.00;;;;;;5002623;28;20046;-70
2021/04/11 02:51:25;;;;;;;2.10;1.48;;;11.70;1.00;;;;;;5003075;28;20128;-71
2021/04/11 02:53:54;;;;;;;2.88;1.70;;;11.70;1.00;;;;;;4992481;28;20443;-71
2021/04/11 02:56:21;;;;;;;2.20;1.60;;;11.70;1.00;;;;;;5002028;28;20052;-72
2021/04/11 02:58:48;;;;;;;2.45;1.77;;;11.60;1.00;;;;;;5002538;28;20076;-72
2021/04/11 03:01:20;;;;;;;4.93;1.85;;;11.60;1.00;;;;;;5006122;28;20467;-72
2021/04/11 03:03:47;;;;;;;2.85;1.70;;;11.60;1.00;;;;;;4996009;28;20073;-71
2021/04/11 03:06:18;;;;;;;2.40;1.85;;;11.60;1.00;;;;;;5000802;28;20092;-71
2021/04/11 03:08:49;;;;;;;3.22;1.70;;;11.60;1.00;;;;;;4998306;28;20512;-71
2021/04/11 03:11:24;;;;;;;4.45;1.92;;;11.60;1.00;;;;;;4999679;28;20057;-72
2021/04/11 03:13:51;;;;;;;;;;;11.70;1.00;;;;;;4995329;28;20069;-72
2021/04/11 03:16:19;;;;;;;2.22;1.60;;;11.60;1.00;;;;;;5001286;28;19922;-72
2021/04/11 03:18:46;;;;;;;3.97;1.95;;;11.70;1.00;;;;;;4998541;28;20056;-71
2021/04/11 03:21:14;;;;;;;4.05;1.90;;;11.60;1.00;;;;;;4999332;28;20057;-71
2021/04/11 03:23:41;;;;;;;2.42;1.80;;;11.60;1.00;;;;;;4994134;28;20100;-71
2021/04/11 03:26:16;;;;;;;3.88;2.00;;;11.50;1.00;;;;;;4997556;28;20052;-71
2021/04/11 03:28:47;;;;;;;4.57;2.28;;;11.50;1.00;;;;;;5000525;28;20042;-71
2021/04/11 03:31:19;;;;;;;2.72;1.75;;;11.60;1.00;;;;;;4999707;28;20058;-70
2021/04/11 03:33:53;;;;;;;2.55;1.83;;;11.50;1.00;;;;;;4991132;28;20038;-70
2021/04/11 03:36:20;;;;;;;4.35;1.85;;;11.60;1.00;;;;;;4998836;28;20052;-70
2021/04/11 03:38:48;;;;;;;3.40;2.13;;;11.50;1.00;;;;;;5001827;28;20046;-70
2021/04/11 03:41:17;;;;;;;3.33;2.00;;;11.50;1.00;;;;;;5001319;28;20045;-71
2021/04/11 03:43:47;;;;;;;5.88;2.00;;;11.40;1.00;;;;;;4992190;28;20050;-72
2021/04/11 03:46:21;;;;;;;3.63;1.70;;;11.40;1.00;;;;;;4998829;28;20053;-71
2021/04/11 03:48:55;;;;;;;4.38;2.15;;;11.50;1.00;;;;;;4997482;28;20499;-71
2021/04/11 03:51:26;;;;;;;9.85;1.85;;;11.50;1.00;;;;;;5001254;28;20483;-71
2021/04/11 03:53:57;;;;;;;8.00;1.80;;;11.40;1.00;;;;;;4994534;28;21558;-70
2021/04/11 03:56:27;;;;;;;4.50;1.63;;;11.30;1.00;;;;;;5000172;28;20504;-73
2021/04/11 03:58:58;;;;;;;3.10;1.73;;;11.30;1.00;;;;;;5000017;28;20491;-71
2021/04/11 04:01:29;;;;;;;4.25;2.15;;;11.20;1.00;;;;;;4997445;28;20069;-71
2021/04/11 04:04:02;;;;;;;3.17;2.17;;;11.20;1.00;;;;;;4991428;28;20057;-72
2021/04/11 04:06:32;;;;;;;5.57;2.70;;;11.20;1.00;;;;;;4998323;28;20046;-71
2021/04/11 04:08:59;;;;;;;2.50;2.05;;;11.10;1.00;;;;;;4995735;28;20065;-70
2021/04/11 04:11:51;;;;;;;4.45;2.17;;;11.10;1.00;;;;;;4998771;28;20459;-72
2021/04/11 04:14:28;;;;;;;2.88;2.05;;;11.10;1.00;;;;;;4985920;28;20468;-72
2021/04/11 04:17:06;;;;;;;3.50;2.25;;;11.10;1.00;;;;;;4995270;28;20137;-71
2021/04/11 04:19:46;;;;;;;3.60;2.13;;;11.10;1.00;;;;;;4996641;28;20061;-69
2021/04/11 04:22:29;;;;;;;3.63;2.33;;;11.10;1.00;;;;;;4994502;28;20046;-69
2021/04/11 04:25:08;;;;;;;4.63;2.15;;;11.10;1.00;;;;;;4995242;28;20420;-70
2021/04/11 04:28:02;;;;;;;5.03;2.72;;;11.10;1.00;;;;;;4998015;28;20222;-69
2021/04/11 04:30:40;;;;;;;5.47;2.33;;;11.20;1.00;;;;;;4998543;28;20046;-69
2021/04/11 04:33:17;;;;;;;4.13;2.22;;;11.10;1.00;;;;;;4991199;28;20053;-69
2021/04/11 04:35:52;;;;;;;3.95;2.13;;;11.00;1.00;;;;;;4999342;28;20053;-71
2021/04/11 04:38:23;;;;;;;3.47;1.85;;;10.90;1.00;;;;;;4999039;28;20050;-70
2021/04/11 04:41:03;;;;;;;3.45;2.58;;;10.90;1.00;;;;;;5001300;28;20050;-73
2021/04/11 04:43:41;;;;;;;3.67;2.10;;;10.90;1.00;;;;;;4991909;28;20121;-71
2021/04/11 04:46:12;;;;;;;4.35;2.45;;;10.90;1.00;;;;;;4996962;28;20056;-69
2021/04/11 04:48:41;;;;;;;3.67;2.15;;;10.90;1.00;;;;;;4997381;28;20058;-71
2021/04/11 04:51:15;;;;;;;3.45;1.73;;;10.90;1.00;;;;;;4999280;28;20531;-73
2021/04/11 04:53:46;;;;;;;4.27;2.33;;;10.90;1.00;;;;;;4992149;28;20083;-71
2021/04/11 04:56:19;;;;;;;2.92;1.90;;;10.90;1.00;;;;;;4992004;28;20046;-71
2021/04/11 04:58:52;;;;;;;4.43;2.38;;;10.90;1.00;;;;;;4992664;28;20581;-70
2021/04/11 05:01:25;;;;;;;4.30;2.53;;;10.90;1.00;;;;;;4995675;28;20427;-71
2021/04/11 05:03:57;;;;;;;3.30;2.25;;;10.90;1.00;;;;;;4986530;28;20068;-71
2021/04/11 05:06:31;;;;;;;6.63;2.22;;;10.90;1.00;;;;;;4990779;28;20049;-70
2021/04/11 05:09:04;;;;;;;5.32;2.53;;;10.90;1.00;;;;;;4995803;28;20049;-70
2021/04/11 05:11:38;;;;;;;4.97;2.50;;;11.00;1.00;;;;;;4994366;28;20129;-71
2021/04/11 05:14:10;;;;;;;2.60;2.20;;;11.00;1.00;;;;;;4994966;28;20057;-68
2021/04/11 05:16:41;;;;;;;3.67;2.33;;;11.00;1.00;;;;;;4994923;28;20073;-69
2021/04/11 05:19:14;;;;;;;5.30;2.78;;;11.00;1.00;;;;;;4997730;28;20054;-70
2021/04/11 05:21:46;;;;;;;3.83;2.43;;;11.10;1.00;;;;;;4997854;28;20046;-70
2021/04/11 05:24:17;;;;;;;2.90;2.20;;;11.10;1.00;;;;;;4991238;28;20145;-69
2021/04/11 05:26:48;;;;;;;3.00;2.33;;;11.20;1.00;;;;;;4993404;28;20074;-70
2021/04/11 05:29:21;;;;;;;4.55;2.67;;;11.20;1.00;;;;;;4997481;28;20042;-70
2021/04/11 05:31:51;;;;;;;3.60;2.63;;;11.20;1.00;;;;;;4995277;28;20085;-70
2021/04/11 05:34:20;;;;;;;4.28;3.00;;;11.20;1.00;;;;;;4993810;28;20078;-71
2021/04/11 05:36:56;;;;;;;3.65;2.72;;;11.10;1.00;;;;;;4996727;28;20065;-69
2021/04/11 05:39:33;;;;;;;9.43;2.92;;;11.20;1.00;;;;;;4994763;28;20046;-71
2021/04/11 05:42:06;;;;;;;5.13;3.28;;;11.20;1.00;;;;;;4992417;28;20053;-71
2021/04/11 05:44:41;;;;;;;8.05;3.33;;;11.20;1.00;;;;;;4992185;28;20046;-70
2021/04/11 05:47:14;;;;;;;5.72;3.25;;;11.30;1.00;;;;;;4997938;28;20054;-70
2021/04/11 05:49:48;;;;;;;4.28;3.10;;;11.30;1.00;;;;;;4994842;28;20104;-70
2021/04/11 05:52:22;;;;;;;4.53;2.60;;;11.40;1.00;;;;;;4995585;28;20613;-71
2021/04/11 05:54:52;;;;;;;4.53;2.50;;;11.50;1.00;;;;;;4994528;28;20488;-70
2021/04/11 05:57:24;;;;;;;6.38;2.72;;;11.70;1.00;;;;;;4998886;28;20049;-70
2021/04/11 05:59:57;;;;;;;5.30;3.00;;;11.70;1.00;;;;;;4998275;28;20042;-70
2021/04/11 06:02:33;;;;;;;5.05;2.80;;;11.80;1.00;;;;;;4991798;28;20057;-70
2021/04/11 06:05:06;;;;;;;8.43;2.75;;;12.00;1.00;;;;;;4991673;28;20464;-71
2021/04/11 06:07:42;;;;;;;5.38;3.05;;;12.10;1.00;;;;;;4994473;28;20408;-70
2021/04/11 06:10:14;;;;;;;8.45;2.88;;;12.30;1.00;;;;;;4995809;28;20495;-71
2021/04/11 06:12:49;;;;;;;5.18;2.65;;;12.30;1.00;;;;;;4989817;28;20132;-71
2021/04/11 06:15:23;;;;;;;5.97;2.95;;;12.50;1.00;;;;;;4992066;28;20056;-72
2021/04/11 06:17:51;;;;;;;5.55;2.80;;;12.60;1.00;;;;;;4996926;28;20049;-70
2021/04/11 06:20:18;;;;;;;6.38;2.90;;;12.70;1.00;;;;;;4992811;28;20046;-71
2021/04/11 06:22:52;;;;;;;5.22;2.70;;;12.90;1.00;;;;;;4992890;28;20105;-70
2021/04/11 06:25:26;;;;;;;6.57;2.78;;;13.00;1.00;;;;;;4989374;28;20419;-71
2021/04/11 06:28:01;;;;;;;8.23;3.17;;;13.00;1.00;;;;;;4995507;28;20051;-71
2021/04/11 06:30:33;;;;;;;4.03;2.60;;;12.90;1.00;;;;;;4994074;28;20069;-70
2021/04/11 06:33:07;;;;;;;7.90;2.80;;;12.80;1.00;;;;;;4990797;28;20047;-71
2021/04/11 06:35:41;;;;;;;7.93;3.10;;;13.10;1.00;;;;;;4991695;28;20063;-71
2021/04/11 06:38:10;;;;;;;;;;;13.30;1.00;;;;;;4994096;28;20084;-71
2021/04/11 06:40:58;;;;;;;7.43;2.50;;;13.60;1.00;;;;;;4998020;28;20398;-71
2021/04/11 06:43:46;;;;;;;5.97;2.60;;;13.80;1.00;;;;;;4990377;28;20061;-72
2021/04/11 06:46:24;;;;;;;5.88;3.13;;;13.60;1.00;;;;;;4992523;28;20066;-73
2021/04/11 06:49:01;;;;;;;6.32;2.53;;;13.70;1.00;;;;;;4991411;28;20125;-73
2021/04/11 06:51:44;;;;;;;6.97;2.70;;;13.90;1.00;;;;;;4996010;28;20744;-74
2021/04/11 06:54:41;;;;;;;4.72;2.85;;;14.00;1.00;;;;;;4989510;28;20058;-72
2021/04/11 06:57:20;;;;;;;6.68;2.50;;;14.00;1.00;;;;;;4996175;28;20054;-71
2021/04/11 07:00:02;;;;;;;9.57;2.70;;;14.30;1.00;;;;;;4995652;28;20491;-73
2021/04/11 07:03:11;;;;;;;6.40;2.60;;;14.30;1.00;;;;;;4992619;28;20046;-72
2021/04/11 07:06:26;;;;;;;4.30;2.85;;;14.60;1.00;;;;;;4997991;28;20051;-73
2021/04/11 07:09:11;;;;;;;5.22;2.78;;;14.20;1.00;;;;;;4931986;29;20040;-71
2021/04/11 07:12:15;;;;;;;6.05;2.83;;;14.00;1.00;;;;;;4933526;29;20061;-72
2021/04/11 07:15:15;;;;;;;6.95;3.05;;;14.00;1.00;;;;;;4978666;28;20042;-73
2021/04/11 07:18:29;;;;;;;3.55;2.50;;;13.90;1.00;;;;;;4994872;28;20092;-74
2021/04/11 07:21:19;;;;;;;5.07;2.80;;;14.00;1.00;;;;;;4995682;28;20046;-73
2021/04/11 07:24:16;;;;;;;6.65;3.05;;;13.90;1.00;;;;;;4992801;28;20058;-73
2021/04/11 07:26:56;;;;;;;5.90;2.45;;;13.90;1.00;;;;;;4983796;28;20046;-74
2021/04/11 07:29:36;;;;;;;4.30;2.50;;;14.00;1.00;;;;;;4999101;28;20133;-72
2021/04/11 07:32:32;;;;;;;5.38;3.28;;;14.00;1.00;;;;;;4995168;28;20164;-73
2021/04/11 07:35:19;;;;;;;6.22;2.80;;;14.20;1.00;;;;;;4996540;28;20060;-72
2021/04/11 07:38:10;;;;;;;6.95;3.00;;;14.30;1.00;;;;;;4999752;28;20042;-71
2021/04/11 07:40:51;;;;;;;5.35;2.65;;;14.50;1.00;;;;;;4997961;28;20423;-72
2021/04/11 07:43:37;;;;;;;3.97;2.50;;;14.60;1.00;;;;;;4989335;28;20050;-71
2021/04/11 07:46:39;;;;;;;3.72;2.60;;;14.80;1.00;;;;;;4997216;28;20703;-72
2021/04/11 07:49:28;;;;;;;7.28;2.80;;;14.80;1.00;;;;;;4963108;28;20046;-73
2021/04/11 07:52:06;;;;;;;4.40;2.95;;;14.90;1.00;;;;;;4993756;28;20048;-75
2021/04/11 07:54:47;;;;;;;3.63;2.50;;;15.10;1.00;;;;;;4997570;28;20142;-72
2021/04/11 07:57:57;;;;;;;9.50;3.05;;;15.20;1.00;;;;;;4993777;28;20053;-75
2021/04/11 08:00:42;;;;;;;6.97;2.65;;;15.30;1.00;;;;;;4993032;28;20412;-73
2021/04/11 08:04:00;;;;;;;5.45;3.00;;;15.20;1.00;;;;;;4994136;28;20051;-73
2021/04/11 08:07:09;;;;;;;7.75;2.60;;;15.40;1.00;;;;;;4994189;28;20050;-75
2021/04/11 08:09:48;;;;;;;5.00;2.25;;;15.40;1.00;;;;;;5002573;28;20077;-72
2021/04/11 08:12:49;;;;;;;4.93;2.72;;;15.60;1.00;;;;;;4990459;28;20073;-72
2021/04/11 08:15:23;;;;;;;5.72;2.90;;;15.60;1.00;;;;;;4996815;28;20050;-72
2021/04/11 08:18:23;;;;;;;3.38;2.03;;;15.80;1.00;;;;;;4998525;28;20046;-72
2021/04/11 08:21:06;;;;;;;3.92;2.17;;;15.90;1.00;;;;;;4930791;28;20046;-72
2021/04/11 08:24:09;;;;;;;2.90;2.17;;;16.00;1.00;;;;;;4991072;28;20061;-71
2021/04/11 08:26:57;;;;;;;5.68;2.47;;;16.30;1.00;;;;;;4994624;28;20058;-72
2021/04/11 08:29:40;;;;;;;4.68;1.90;;;16.00;1.00;;;;;;4997855;28;20041;-72
2021/04/11 08:32:41;;;;;;;6.50;2.13;;;15.80;1.00;;;;;;4993484;28;21398;-73
2021/04/11 08:35:25;;;;;;;7.28;2.25;;;16.30;1.00;;;;;;4967123;28;20101;-74
2021/04/11 08:38:13;;;;;;;5.25;2.30;;;16.60;1.00;;;;;;4999686;28;20056;-72
2021/04/11 08:41:13;;;;;;;3.70;2.17;;;16.50;1.00;;;;;;5000124;28;20133;-71
2021/04/11 08:44:00;;;;;;;5.25;2.20;;;16.40;1.00;;;;;;4978552;28;20054;-70
2021/04/11 08:46:44;;;;;;;5.55;2.83;;;16.50;1.00;;;;;;4997236;28;20046;-72
2021/04/11 08:49:20;;;;;;;3.65;2.40;;;16.70;1.00;;;;;;4996049;28;20510;-71
2021/04/11 08:51:59;;;;;;;4.18;2.10;;;16.80;1.00;;;;;;5002682;28;20058;-72
2021/04/11 08:54:43;;;;;;;3.95;2.08;;;16.80;1.00;;;;;;4998564;28;20048;-72
2021/04/11 08:57:33;;;;;;;4.57;2.03;;;16.90;1.00;;;;;;4999976;28;20045;-72
2021/04/11 09:00:11;;;;;;;2.28;1.42;;;16.60;1.00;;;;;;4999162;28;20046;-72
2021/04/11 09:02:56;;;;;;;2.22;1.40;;;16.60;1.00;;;;;;4995925;28;20125;-71
2021/04/11 09:05:31;;;;;;;1.85;1.00;;;17.10;1.00;;;;;;4999489;28;20049;-72
2021/04/11 09:08:09;;;;;;;3.55;1.00;;;16.90;1.00;;;;;;5001106;28;20050;-71
2021/04/11 09:10:53;;;;;;;2.47;0.82;;;17.10;1.00;;;;;;4996940;28;20053;-72
2021/04/11 09:13:32;;;;;;;1.42;0.70;;;17.00;1.00;;;;;;4990137;28;20053;-69
2021/04/11 09:16:05;;;;;;;1.95;0.73;;;17.10;1.00;;;;;;4995512;28;20538;-72
2021/04/11 09:18:54;;;;;;;2.47;0.70;;;17.20;1.00;;;;;;4994373;28;20046;-74
2021/04/11 09:21:53;;;;;;;1.45;0.80;;;16.90;1.00;;;;;;4995784;28;20050;-73
2021/04/11 09:24:25;;;;;;;2.13;0.90;;;16.70;1.00;;;;;;4992798;28;20088;-73
2021/04/11 09:27:28;;;;;;;1.67;0.70;;;17.00;1.00;;;;;;4994989;28;20405;-72
2021/04/11 09:30:04;;;;;;;0.95;0.77;;;17.10;1.00;;;;;;4988017;28;20054;-73
2021/04/11 09:32:56;;;;;;;1.65;1.00;;;16.80;1.00;;;;;;4993668;28;20060;-72
2021/04/11 09:35:29;;;;;;;2.60;1.00;;;16.80;1.00;;;;;;4993732;28;20046;-73
2021/04/11 09:38:29;;;;;;;1.55;0.82;;;17.00;1.00;;;;;;4999360;28;20052;-72
2021/04/11 09:41:35;;;;;;;2.72;0.90;;;16.90;1.00;;;;;;5000964;28;20415;-73
2021/04/11 09:44:24;;;;;;;3.67;1.10;;;17.10;1.00;;;;;;4911382;29;20127;-74
2021/04/11 09:47:05;;;;;;;1.45;0.70;;;17.00;1.00;;;;;;4916158;29;20052;-72
2021/04/11 09:49:58;;;;;;;1.92;0.80;;;17.50;1.00;;;;;;4974126;28;20100;-72
2021/04/11 09:52:53;;;;;;;2.70;1.02;;;18.20;1.00;;;;;;4991585;28;20068;-71
2021/04/11 09:55:24;;;;;;;1.85;0.88;;;18.60;1.00;;;;;;4994349;28;20045;-72
2021/04/11 09:58:28;;;;;;;1.70;0.90;;;18.80;1.00;;;;;;4999404;28;20050;-72
2021/04/11 10:01:04;;;;;;;1.77;0.80;;;18.90;1.00;;;;;;4999639;28;20427;-72
2021/04/11 10:03:52;;;;;;;2.28;1.00;;;19.80;1.00;;;;;;4992030;28;20053;-73
2021/04/11 10:06:29;;;;;;;4.22;0.82;;;19.90;1.00;;;;;;4991041;28;20078;-71
2021/04/11 10:09:14;;;;;;;4.47;1.42;;;20.00;1.00;;;;;;4998512;28;20084;-73
2021/04/11 10:12:06;;;;;;;1.10;0.80;;;19.80;1.00;;;;;;4997102;28;20133;-74
2021/04/11 10:14:48;;;;;;;1.52;0.90;;;19.80;1.00;;;;;;4991507;28;20057;-73
2021/04/11 10:17:30;;;;;;;1.40;0.80;;;19.60;1.00;;;;;;4997145;28;20056;-70
2021/04/11 10:20:06;;;;;;;2.58;0.82;;;19.60;1.00;;;;;;4998132;28;20123;-73
2021/04/11 10:22:42;;;;;;;1.58;0.73;;;20.40;1.00;;;;;;4992647;28;20157;-73
2021/04/11 10:25:20;;;;;;;1.92;0.90;;;20.50;1.00;;;;;;4995048;28;20050;-71
2021/04/11 10:27:56;;;;;;;1.23;0.90;;;20.40;1.00;;;;;;4995988;28;20064;-72
2021/04/11 10:30:26;;;;;;;2.78;0.60;;;20.20;1.00;;;;;;4994918;28;20060;-74
2021/04/11 10:33:02;;;;;;;2.17;1.10;;;19.70;1.00;;;;;;4992825;28;20065;-73
2021/04/11 10:35:35;;;;;;;2.15;0.85;;;19.80;1.00;;;;;;4993366;28;20054;-73
2021/04/11 10:38:08;;;;;;;3.80;1.10;;;19.40;1.00;;;;;;4998195;28;20073;-71
2021/04/11 10:40:52;;;;;;;2.90;1.00;;;19.50;1.00;;;;;;4991725;28;20046;-72
2021/04/11 10:43:31;;;;;;;2.30;1.10;;;19.10;1.00;;;;;;4992994;28;20069;-73
2021/04/11 10:46:03;;;;;;;4.85;0.93;;;19.00;1.00;;;;;;4995547;28;20505;-72
2021/04/11 10:49:06;;;;;;;3.08;0.80;;;18.50;1.00;;;;;;4995889;28;20097;-72
2021/04/11 10:52:02;;;;;;;2.85;1.00;;;18.60;1.00;;;;;;4990839;28;20061;-73
2021/04/11 10:54:45;;;;;;;2.50;0.95;;;18.70;1.00;;;;;;4992992;28;20073;-73
2021/04/11 10:57:47;;;;;;;2.97;1.40;;;18.50;1.00;;;;;;4994065;28;20053;-73
2021/04/11 11:00:21;;;;;;;4.63;1.30;;;18.50;1.00;;;;;;4997434;28;20057;-72
2021/04/11 11:03:27;;;;;;;6.07;1.33;;;18.30;1.00;;;;;;4994689;28;20062;-71
2021/04/11 11:06:10;;;;;;;3.78;1.17;;;18.50;1.00;;;;;;4994283;28;20043;-73
2021/04/11 11:08:52;;;;;;;6.22;1.40;;;18.40;1.00;;;;;;5000192;28;20507;-72
2021/04/11 11:11:41;;;;;;;1.50;1.10;;;18.40;1.00;;;;;;4997085;28;20504;-73
2021/04/11 11:14:18;;;;;;;2.40;1.00;;;18.30;1.00;;;;;;4990797;28;20064;-71
2021/04/11 11:17:08;;;;;;;2.30;1.00;;;18.20;1.00;;;;;;4996222;28;20056;-73
2021/04/11 11:19:43;;;;;;;4.13;1.50;;;18.20;1.00;;;;;;4998744;28;20052;-72
2021/04/11 11:22:46;;;;;;;1.80;1.23;;;18.10;1.00;;;;;;4993585;28;20082;-72
2021/04/11 11:25:35;;;;;;;2.35;1.05;;;18.10;1.00;;;;;;4994596;28;20061;-72
2021/04/11 11:28:34;;;;;;;5.63;2.40;;;17.70;1.00;;;;;;4994572;28;20416;-74
2021/04/11 11:31:15;;;;;;;1.98;1.42;;;17.90;1.00;;;;;;4992714;28;20050;-69
2021/04/11 11:33:54;;;;;;;1.73;0.90;;;17.40;1.00;;;;;;4992104;28;20050;-71
2021/04/11 11:36:35;;;;;;;2.95;1.02;;;17.20;1.00;;;;;;4991542;28;20507;-73
2021/04/11 11:39:14;;;;;;;2.25;1.13;;;16.90;1.00;;;;;;4992803;28;20057;-72
2021/04/11 11:41:54;;;;;;;2.40;1.15;;;16.80;1.00;;;;;;4993337;28;20645;-71
2021/04/11 11:44:27;;;;;;;2.22;1.20;;;17.10;1.00;;;;;;4990713;28;20061;-72
2021/04/11 11:47:03;;;;;;;2.97;1.13;;;17.10;1.00;;;;;;4999555;28;20518;-72
2021/04/11 11:49:38;;;;;;;2.95;1.20;;;17.20;1.00;;;;;;4990627;28;20054;-72
2021/04/11 11:52:09;;;;;;;4.60;1.08;;;17.10;1.00;;;;;;4991552;28;20050;-71
2021/04/11 11:54:40;;;;;;;2.22;1.00;;;17.30;1.00;;;;;;4992402;28;20084;-70
2021/04/11 11:57:22;;;;;;;1.80;0.95;;;17.30;1.00;;;;;;4994495;28;20050;-71
2021/04/11 11:59:59;;;;;;;2.35;0.80;;;17.50;1.00;;;;;;4994273;28;20269;-70
2021/04/11 12:02:39;;;;;;;3.60;0.68;;;17.60;1.00;;;;;;4991176;28;20130;-77
2021/04/11 12:05:13;;;;;;;2.35;1.17;;;17.70;1.00;;;;;;4992380;28;20109;-70
2021/04/11 12:07:43;;;;;;;2.38;1.08;;;18.10;1.00;;;;;;4997962;28;20061;-70
2021/04/11 12:10:25;;;;;;;1.88;0.90;;;18.40;1.00;;;;;;4998185;28;20042;-70
2021/04/11 12:13:21;;;;;;;2.67;0.82;;;18.70;1.00;;;;;;4993106;28;20046;-71
2021/04/11 12:15:55;;;;;;;1.95;0.82;;;18.90;1.00;;;;;;4992388;28;20511;-73
2021/04/11 12:18:24;;;;;;;;;;;18.30;1.00;;;;;;4996815;28;20050;-73
2021/04/11 12:21:00;;;;;;;2.15;0.95;;;18.50;1.00;;;;;;4994627;28;19922;-71
2021/04/11 12:23:32;;;;;;;2.42;0.88;;;18.50;1.00;;;;;;4989668;28;20058;-70
2021/04/11 12:26:08;;;;;;;1.65;0.90;;;18.70;1.00;;;;;;4992236;28;20154;-70
2021/04/11 12:28:38;;;;;;;1.85;0.80;;;18.60;1.00;;;;;;4991289;28;20112;-71
2021/04/11 12:31:30;;;;;;;2.72;0.90;;;18.40;1.00;;;;;;4994374;28;20048;-74
2021/04/11 12:34:04;;;;;;;1.25;0.90;;;18.80;1.00;;;;;;4981773;28;20583;-71
2021/04/11 12:36:44;;;;;;;1.85;1.00;;;18.60;1.00;;;;;;4991432;28;20049;-71
2021/04/11 12:39:19;;;;;;;2.60;1.10;;;18.80;1.00;;;;;;4995264;28;20062;-71
2021/04/11 12:41:54;;;;;;;2.60;0.90;;;18.60;1.00;;;;;;4991938;28;20374;-72
2021/04/11 12:44:31;;;;;;;2.88;0.80;;;18.60;1.00;;;;;;4991794;28;20443;-74
2021/04/11 12:47:07;;;;;;;1.52;0.98;;;18.50;1.00;;;;;;4990184;28;20049;-72
2021/04/11 12:49:47;;;;;;;3.50;0.98;;;18.40;1.00;;;;;;4990710;28;20093;-71
2021/04/11 12:52:26;;;;;;;2.38;1.13;;;18.40;1.00;;;;;;4990982;28;20061;-71
2021/04/11 12:55:01;;;;;;;1.77;0.93;;;18.30;1.00;;;;;;4985594;28;20053;-73
2021/04/11 12:57:32;;;;;;;2.60;0.88;;;18.40;1.00;;;;;;4991668;28;20146;-70
2021/04/11 13:00:05;;;;;;;1.98;1.30;;;18.40;1.00;;;;;;4995129;28;20399;-73
2021/04/11 13:02:45;;;;;;;1.30;0.77;;;18.40;1.00;;;;;;4987724;28;20064;-74
2021/04/11 13:05:16;;;;;;;2.65;1.00;;;18.80;1.00;;;;;;4988990;28;20049;-72
2021/04/11 13:07:50;;;;;;;3.83;1.13;;;18.40;1.00;;;;;;4990334;28;20046;-72
2021/04/11 13:10:25;;;;;;;3.70;1.00;;;18.90;1.00;;;;;;4992899;28;20130;-73
2021/04/11 13:13:00;;;;;;;3.88;1.20;;;19.20;1.00;;;;;;4990329;28;20057;-73
2021/04/11 13:15:33;;;;;;;2.10;1.00;;;18.90;1.00;;;;;;4992061;28;20145;-71
2021/04/11 13:18:19;;;;;;;3.55;1.40;;;19.20;1.00;;;;;;4993412;28;20141;-75
2021/04/11 13:20:56;;;;;;;1.90;1.10;;;19.10;1.00;;;;;;4989710;28;20042;-74
2021/04/11 13:23:28;;;;;;;2.22;1.15;;;19.00;1.00;;;;;;4986358;28;20080;-72
2021/04/11 13:26:03;;;;;;;1.67;0.93;;;19.20;1.00;;;;;;4992045;28;20829;-73
2021/04/11 13:28:37;;;;;;;1.60;0.98;;;18.80;1.00;;;;;;4996906;28;20057;-73
2021/04/11 13:31:11;;;;;;;2.40;1.27;;;18.80;1.00;;;;;;4991459;28;20045;-72
2021/04/11 13:33:47;;;;;;;4.75;1.33;;;18.60;1.00;;;;;;4991280;28;20496;-71
2021/04/11 13:36:26;;;;;;;4.78;1.65;;;18.70;1.00;;;;;;4995817;28;20393;-70
2021/04/11 13:39:05;;;;;;;2.42;1.23;;;18.80;1.00;;;;;;4995935;28;20073;-71
2021/04/11 13:42:06;;;;;;;6.75;1.48;;;18.50;1.00;;;;;;4997480;28;20408;-73
2021/04/11 13:44:40;;;;;;;2.08;0.90;;;18.40;1.00;;;;;;4980904;28;20056;-71
2021/04/11 13:47:16;;;;;;;3.47;1.10;;;18.30;1.00;;;;;;4999113;28;20081;-72
2021/04/11 13:49:51;;;;;;;2.90;1.00;;;18.40;1.00;;;;;;4996649;28;20129;-74
2021/04/11 13:52:22;;;;;;;2.38;1.10;;;18.60;1.00;;;;;;4994913;28;20050;-71